Time;durP1;ratioP1;P1;durP2;ratioP2;P2;SDS_P1;SDS_P2;PMS_P1;PMS_P2;Temp;Humidity;BMP_temperature;BMP_pressure;BME280_temperature;BME280_humidity;BME280_pressure;Samples;Min_cycle;Max_cycle;Signal;HPM_P1;HPM_P2
2023/01/08 00:01:16;;;;;;;6.47;4.83;;;8.30;79.20;;;11.27;49.55;97037.78;4995317;28;20057;-46
2023/01/08 00:03:44;;;;;;;6.23;4.83;;;8.40;78.80;;;11.28;48.96;97016.25;4994237;28;20042;-45
2023/01/08 00:06:16;;;;;;;7.43;4.67;;;8.40;78.50;;;11.27;49.21;97014.59;4995339;28;20498;-50
2023/01/08 00:08:44;;;;;;;6.57;4.83;;;8.40;78.60;;;11.31;49.33;97015.91;4995204;28;20038;-48
2023/01/08 00:11:13;;;;;;;6.63;4.13;;;8.40;78.40;;;11.36;48.94;97015.34;4993956;28;20058;-46
2023/01/08 00:13:41;;;;;;;4.97;3.70;;;8.40;77.70;;;11.42;48.91;97009.31;4986341;28;20049;-48
2023/01/08 00:16:15;;;;;;;5.80;3.93;;;8.50;78.10;;;11.44;48.75;97017.97;4995281;28;20043;-49
2023/01/08 00:18:44;;;;;;;5.53;3.93;;;8.50;77.30;;;11.52;48.59;97015.19;4986484;28;20513;-47
2023/01/08 00:21:12;;;;;;;5.83;3.77;;;8.60;77.20;;;11.58;48.59;97022.47;5010475;28;20499;-45
2023/01/08 00:23:40;;;;;;;5.70;3.63;;;8.60;76.70;;;11.63;48.62;97019.22;4995023;28;20057;-45
2023/01/08 00:26:09;;;;;;;4.93;3.60;;;8.60;76.80;;;11.63;48.31;97016.56;4993917;28;20051;-46
2023/01/08 00:28:37;;;;;;;7.77;4.63;;;8.70;76.60;;;11.65;48.16;97006.59;4994636;28;20046;-45
2023/01/08 00:31:11;;;;;;;5.43;4.60;;;8.60;76.10;;;11.69;48.31;97007.00;4994223;28;20062;-46
2023/01/08 00:33:39;;;;;;;;;;;8.70;76.50;;;11.70;48.03;96996.16;4995206;28;20057;-48
2023/01/08 00:36:17;;;;;;;5.67;4.10;;;8.70;75.40;;;11.76;48.18;96974.09;4993565;28;19952;-50
2023/01/08 00:38:45;;;;;;;7.33;5.57;;;8.60;76.20;;;11.74;47.96;96973.44;4986336;28;20069;-45
2023/01/08 00:41:14;;;;;;;6.10;4.13;;;8.60;76.00;;;11.75;47.72;96974.31;4993314;28;20049;-46
2023/01/08 00:43:42;;;;;;;7.33;5.00;;;8.60;76.10;;;11.73;48.09;96965.63;4987082;28;20050;-46
2023/01/08 00:46:10;;;;;;;7.10;4.97;;;8.60;76.00;;;11.72;47.89;96964.81;4994484;28;20046;-49
2023/01/08 00:48:37;;;;;;;8.57;5.87;;;8.60;76.40;;;11.70;47.88;96969.50;4992834;28;20046;-45
2023/01/08 00:51:07;;;;;;;6.60;4.90;;;8.60;76.30;;;11.67;48.11;96972.56;4994630;28;20066;-47
2023/01/08 00:53:36;;;;;;;8.63;5.33;;;8.50;76.50;;;11.65;47.97;96974.59;4993254;28;20054;-47
2023/01/08 00:56:08;;;;;;;10.03;6.23;;;8.50;76.70;;;11.62;48.14;96973.09;4994811;28;20046;-48
2023/01/08 00:58:35;;;;;;;7.70;5.13;;;8.50;76.90;;;11.62;48.18;96973.09;4992225;28;20080;-45
2023/01/08 01:01:12;;;;;;;6.93;4.97;;;8.50;77.00;;;11.61;47.99;96966.13;4993077;28;20046;-48
2023/01/08 01:03:41;;;;;;;6.57;4.63;;;8.40;76.40;;;11.59;47.65;96965.47;5009300;28;20053;-47
2023/01/08 01:06:11;;;;;;;6.67;4.80;;;8.40;76.70;;;11.56;47.79;96947.19;4993042;28;20046;-46
2023/01/08 01:08:39;;;;;;;5.43;4.33;;;8.40;76.70;;;11.53;47.91;96949.38;4992855;28;20050;-45
2023/01/08 01:11:17;;;;;;;7.53;4.53;;;8.40;76.30;;;11.43;47.88;96962.97;4993910;28;20049;-49
2023/01/08 01:13:45;;;;;;;5.87;4.17;;;8.40;76.70;;;11.39;47.74;96954.53;4986701;28;20030;-49
2023/01/08 01:16:13;;;;;;;5.97;4.00;;;8.40;76.60;;;11.41;48.17;96960.50;4992937;28;20053;-46
2023/01/08 01:18:41;;;;;;;62.93;25.27;;;8.40;76.40;;;11.37;48.38;96958.38;4992635;28;20053;-49
2023/01/08 01:21:30;;;;;;;21.10;9.03;;;8.30;76.70;;;11.37;48.24;96947.72;4992721;28;20434;-46
2023/01/08 01:24:04;;;;;;;6.43;4.00;;;8.40;76.50;;;11.41;47.75;96954.34;4987057;28;20050;-46
2023/01/08 01:26:32;;;;;;;6.47;4.47;;;8.40;76.00;;;11.32;48.37;96945.63;4993968;28;20065;-46
2023/01/08 01:29:00;;;;;;;5.83;3.90;;;8.40;76.10;;;11.35;48.28;96933.75;4992523;28;20433;-48
2023/01/08 01:31:30;;;;;;;4.97;3.97;;;8.40;76.30;;;11.41;47.97;96938.34;4992133;28;20057;-47
2023/01/08 01:33:59;;;;;;;6.67;4.30;;;8.40;76.10;;;11.37;47.82;96943.22;5008704;28;20046;-50
2023/01/08 01:36:27;;;;;;;6.03;4.17;;;8.40;76.00;;;11.38;47.81;96944.88;4992610;28;20069;-48
2023/01/08 01:38:56;;;;;;;5.73;4.10;;;8.40;75.70;;;11.40;47.96;96953.53;4993625;28;20046;-45
2023/01/08 01:41:29;;;;;;;6.00;3.87;;;8.40;76.00;;;11.45;47.87;96965.47;4992216;28;20041;-47
2023/01/08 01:44:19;;;;;;;4.80;3.10;;;8.50;75.90;;;11.45;47.91;96957.47;4993708;28;20051;-50
2023/01/08 01:46:48;;;;;;;5.13;3.70;;;8.50;75.70;;;11.54;47.74;96959.03;4984705;28;20050;-46
2023/01/08 01:49:21;;;;;;;5.37;3.60;;;8.50;75.50;;;11.57;47.83;96961.31;4992406;28;20054;-45
2023/01/08 01:51:55;;;;;;;5.17;3.40;;;8.60;75.00;;;11.62;47.65;96962.44;4985140;28;20061;-48
2023/01/08 01:54:23;;;;;;;5.28;3.60;;;8.60;75.00;;;11.66;47.60;96960.22;4993572;28;20387;-47
2023/01/08 01:56:51;;;;;;;4.43;3.33;;;8.60;75.00;;;11.65;47.64;96958.59;4990169;28;20031;-46
2023/01/08 01:59:18;;;;;;;7.07;4.17;;;8.60;75.00;;;11.66;47.69;96957.56;4991096;28;20046;-46
2023/01/08 02:01:47;;;;;;;4.77;3.80;;;8.60;75.10;;;11.71;47.53;96946.31;4991946;28;20050;-48
2023/01/08 02:04:15;;;;;;;8.77;4.83;;;8.60;74.80;;;11.67;47.61;96940.56;4993025;28;20363;-50
2023/01/08 02:06:52;;;;;;;8.87;4.17;;;8.60;75.10;;;11.67;47.70;96948.56;4993021;28;20057;-48
2023/01/08 02:09:40;;;;;;;5.13;3.87;;;8.60;75.30;;;11.73;47.49;96941.63;4993110;28;20038;-49
2023/01/08 02:12:31;;;;;;;6.07;4.00;;;8.60;75.10;;;11.75;47.12;96951.13;4992063;28;20043;-47
2023/01/08 02:15:20;;;;;;;6.67;4.57;;;8.60;75.30;;;11.78;47.33;96956.06;5001275;28;20042;-48
2023/01/08 02:18:07;;;;;;;6.60;4.63;;;8.60;75.10;;;11.80;47.35;96940.72;4985248;28;20490;-45
2023/01/08 02:20:51;;;;;;;6.23;4.70;;;8.70;75.30;;;11.83;47.27;96943.00;4991665;28;20434;-49
2023/01/08 02:23:39;;;;;;;6.47;4.10;;;8.70;75.50;;;11.87;47.30;96930.13;4993007;28;20054;-48
2023/01/08 02:26:07;;;;;;;6.17;3.97;;;8.70;75.70;;;11.90;47.55;96928.97;4987461;28;20448;-48
2023/01/08 02:29:04;;;;;;;7.70;4.77;;;8.70;75.50;;;11.91;47.14;96925.28;4992286;28;20046;-49
2023/01/08 02:31:34;;;;;;;6.20;4.17;;;8.70;75.40;;;11.93;47.28;96924.09;4992466;28;20061;-48
2023/01/08 02:34:02;;;;;;;6.87;4.60;;;8.70;75.70;;;11.92;47.14;96919.78;4991512;28;20047;-47
2023/01/08 02:36:55;;;;;;;5.77;3.73;;;8.70;75.40;;;11.92;47.16;96913.59;4991376;28;20046;-50
2023/01/08 02:39:45;;;;;;;6.03;3.83;;;8.70;75.30;;;11.95;47.11;96914.06;4992527;28;20046;-50
2023/01/08 02:42:34;;;;;;;6.63;4.33;;;8.70;75.50;;;11.96;47.32;96906.88;4992031;28;20054;-45
2023/01/08 02:45:07;;;;;;;5.53;4.00;;;8.80;74.80;;;11.99;46.95;96903.84;4985517;28;20050;-46
2023/01/08 02:47:52;;;;;;;9.38;3.85;;;8.70;75.40;;;12.01;47.54;96894.63;4992072;28;20042;-49
2023/01/08 02:50:50;;;;;;;6.07;4.10;;;8.80;75.30;;;12.02;47.29;96893.63;4991139;28;20421;-47
2023/01/08 02:53:21;;;;;;;6.90;4.90;;;8.80;75.30;;;12.01;47.33;96888.47;4987105;28;20047;-50
2023/01/08 02:55:58;;;;;;;6.43;4.97;;;8.80;75.50;;;12.02;46.79;96887.47;4983484;28;20041;-47
2023/01/08 02:58:30;;;;;;;7.13;5.57;;;8.80;75.40;;;12.05;47.15;96887.06;4990570;28;20049;-46
2023/01/08 03:01:06;;;;;;;5.20;3.93;;;8.80;75.60;;;12.04;47.48;96879.25;4991017;28;20053;-48
2023/01/08 03:03:37;;;;;;;6.83;4.50;;;8.70;75.50;;;12.01;47.28;96877.78;4990100;28;20053;-49
2023/01/08 03:06:09;;;;;;;6.27;3.73;;;8.70;75.90;;;11.98;47.30;96870.16;4991034;28;20051;-49
2023/01/08 03:08:40;;;;;;;7.00;5.00;;;8.70;76.00;;;11.98;46.97;96868.34;4991449;28;20046;-46
2023/01/08 03:11:11;;;;;;;7.87;4.20;;;8.70;75.90;;;11.98;47.29;96872.81;4990431;28;20050;-44
2023/01/08 03:14:01;;;;;;;5.33;3.40;;;8.70;75.70;;;11.98;47.10;96859.50;4991902;28;20054;-49
2023/01/08 03:16:40;;;;;;;5.03;3.43;;;8.70;75.40;;;11.97;47.01;96860.53;4990313;28;20049;-47
2023/01/08 03:19:31;;;;;;;6.23;3.50;;;8.80;75.10;;;12.00;47.33;96847.63;4991786;28;20046;-48
2023/01/08 03:22:02;;;;;;;5.20;3.90;;;8.80;74.60;;;12.05;46.88;96844.38;4990760;28;20039;-46
2023/01/08 03:24:34;;;;;;;5.87;3.27;;;8.80;74.70;;;12.06;47.19;96846.06;4990341;28;20053;-45
2023/01/08 03:27:05;;;;;;;5.03;3.53;;;8.90;74.20;;;12.08;46.69;96843.16;4990734;28;20417;-47
2023/01/08 03:29:34;;;;;;;4.77;3.90;;;8.90;74.40;;;12.11;47.06;96848.13;4990409;28;20050;-47
2023/01/08 03:32:07;;;;;;;4.30;3.40;;;9.00;74.10;;;12.15;46.61;96847.56;4990889;28;20053;-49
2023/01/08 03:34:39;;;;;;;8.87;4.43;;;9.00;74.00;;;12.19;46.52;96843.50;4990331;28;20039;-49
2023/01/08 03:37:09;;;;;;;5.97;3.70;;;9.00;74.00;;;12.20;46.66;96839.81;4990274;28;20057;-46
2023/01/08 03:39:48;;;;;;;5.83;3.70;;;9.00;74.20;;;12.19;46.45;96835.50;4989822;28;20038;-47
2023/01/08 03:42:19;;;;;;;6.17;3.80;;;9.00;73.90;;;12.18;46.82;96831.19;4991641;28;20131;-46
2023/01/08 03:44:46;;;;;;;6.67;3.80;;;9.00;74.10;;;12.20;46.82;96833.66;5006487;28;20046;-48
2023/01/08 03:47:15;;;;;;;6.70;4.30;;;9.00;74.10;;;12.18;46.54;96827.69;4991670;28;20051;-48
2023/01/08 03:49:44;;;;;;;5.07;3.67;;;8.90;74.10;;;12.19;46.82;96826.66;4990340;28;20053;-50
2023/01/08 03:52:28;;;;;;;5.03;3.80;;;8.90;74.30;;;12.18;46.54;96833.03;4990515;28;20046;-51
2023/01/08 03:54:55;;;;;;;7.70;4.00;;;9.00;73.70;;;12.15;46.52;96836.06;4984234;28;20042;-48
2023/01/08 03:57:24;;;;;;;6.63;4.00;;;8.80;74.30;;;12.09;46.67;96826.16;4990172;28;20432;-47
2023/01/08 03:59:51;;;;;;;6.03;4.30;;;8.80;74.50;;;12.06;46.91;96826.53;4983512;28;20414;-47
2023/01/08 04:02:19;;;;;;;14.63;6.43;;;8.80;74.60;;;12.06;46.60;96814.03;4991600;28;20042;-46
2023/01/08 04:04:47;;;;;;;12.00;5.83;;;8.80;74.60;;;12.04;46.69;96824.06;4990702;28;20047;-51
2023/01/08 04:07:15;;;;;;;4.87;3.60;;;8.80;74.70;;;12.05;46.88;96814.22;4989979;28;20057;-52
2023/01/08 04:09:42;;;;;;;6.33;3.80;;;8.80;74.50;;;12.03;46.66;96817.06;4989990;28;20080;-49
2023/01/08 04:12:10;;;;;;;5.77;3.20;;;8.80;74.40;;;12.04;46.76;96815.22;4991247;28;20047;-46
2023/01/08 04:14:37;;;;;;;4.90;3.57;;;8.80;74.00;;;12.06;46.38;96819.38;4991411;28;20422;-49
2023/01/08 04:17:05;;;;;;;3.87;3.17;;;8.90;73.90;;;12.04;46.22;96807.22;4990072;28;21080;-47
2023/01/08 04:19:32;;;;;;;4.10;3.20;;;8.90;73.20;;;12.05;46.24;96799.03;4989922;28;20046;-48
2023/01/08 04:22:00;;;;;;;5.27;3.07;;;8.90;73.00;;;12.05;46.17;96800.88;4991553;28;20038;-46
2023/01/08 04:24:27;;;;;;;4.13;2.80;;;9.00;72.30;;;12.04;46.61;96793.88;4991555;28;20637;-47
2023/01/08 04:26:54;;;;;;;4.57;3.17;;;9.00;72.70;;;12.04;46.53;96809.88;4991463;28;20057;-46
2023/01/08 04:29:22;;;;;;;8.93;3.60;;;9.00;72.40;;;12.05;46.46;96817.72;4994324;28;20047;-49
2023/01/08 04:31:49;;;;;;;5.70;3.17;;;9.00;72.30;;;12.06;46.39;96816.72;4993644;28;20050;-46
2023/01/08 04:34:17;;;;;;;4.07;2.83;;;9.00;72.10;;;12.02;46.21;96815.44;4995120;28;20050;-47
2023/01/08 04:36:44;;;;;;;5.20;3.17;;;9.00;71.80;;;12.06;46.37;96831.88;4994617;28;20046;-45
2023/01/08 04:39:12;;;;;;;3.53;2.80;;;9.00;71.20;;;12.02;46.11;96828.78;4993545;28;20425;-46
2023/01/08 04:41:40;;;;;;;3.70;2.80;;;9.00;71.40;;;12.04;46.22;96825.91;4994023;28;20050;-48
2023/01/08 04:44:08;;;;;;;4.27;3.20;;;9.00;71.60;;;12.03;46.39;96825.06;4994660;28;20053;-46
2023/01/08 04:46:36;;;;;;;4.07;2.87;;;9.00;71.90;;;12.04;46.60;96834.75;4994521;28;20042;-47
2023/01/08 04:49:04;;;;;;;5.73;3.13;;;9.00;72.60;;;12.05;46.25;96825.72;4994293;28;20057;-50
2023/01/08 04:51:31;;;;;;;4.77;2.87;;;9.00;72.80;;;12.05;46.51;96827.56;4994168;28;20054;-49
2023/01/08 04:53:59;;;;;;;4.67;3.13;;;9.00;72.80;;;12.08;46.41;96832.50;4994346;28;20042;-46
2023/01/08 04:56:26;;;;;;;4.07;3.23;;;9.00;72.80;;;12.08;46.37;96833.34;4994434;28;20086;-48
2023/01/08 04:58:54;;;;;;;4.80;3.20;;;9.00;72.60;;;12.13;46.11;96838.09;4991865;28;20042;-46
2023/01/08 05:01:24;;;;;;;3.90;3.17;;;9.00;72.70;;;12.16;46.39;96832.41;4994020;28;20051;-50
2023/01/08 05:03:55;;;;;;;5.27;3.73;;;9.00;72.60;;;12.16;46.30;96832.41;4994375;28;20049;-49
2023/01/08 05:06:23;;;;;;;4.63;2.90;;;9.00;72.50;;;12.16;46.08;96833.22;4994195;28;20421;-44
2023/01/08 05:08:50;;;;;;;3.90;2.63;;;9.00;72.50;;;12.19;45.88;96832.00;4993728;28;20050;-49
2023/01/08 05:11:18;;;;;;;4.00;2.60;;;9.00;72.20;;;12.20;46.29;96836.31;4994002;28;20062;-46
2023/01/08 05:13:51;;;;;;;3.97;2.73;;;9.10;72.30;;;12.19;46.07;96840.00;4993830;28;20034;-49
2023/01/08 05:16:19;;;;;;;4.37;3.13;;;9.00;72.00;;;12.20;46.25;96833.66;4977458;28;20502;-50
2023/01/08 05:18:46;;;;;;;3.30;2.37;;;9.00;71.70;;;12.20;45.97;96841.66;5008588;28;20049;-47
2023/01/08 05:21:14;;;;;;;4.60;3.00;;;9.00;72.20;;;12.19;45.98;96840.84;4994287;28;20046;-49
2023/01/08 05:23:46;;;;;;;3.63;2.30;;;9.10;71.90;;;12.22;45.97;96839.63;4993775;28;20049;-49
2023/01/08 05:26:15;;;;;;;5.33;3.00;;;9.10;72.40;;;12.24;46.11;96837.59;4992647;28;20077;-46
2023/01/08 05:28:43;;;;;;;4.07;2.53;;;9.10;72.40;;;12.28;46.14;96838.03;4993700;28;20046;-45
2023/01/08 05:31:11;;;;;;;3.97;2.43;;;9.20;72.40;;;12.29;46.31;96824.50;4993469;28;20042;-45
2023/01/08 05:33:39;;;;;;;3.70;2.40;;;9.10;72.50;;;12.33;46.12;96822.25;4993559;28;20054;-47
2023/01/08 05:36:09;;;;;;;4.10;3.07;;;9.20;72.80;;;12.36;46.04;96817.38;4992479;28;20057;-47
2023/01/08 05:38:37;;;;;;;3.30;2.37;;;9.20;73.20;;;12.35;46.58;96828.25;4992914;28;20039;-49
2023/01/08 05:41:05;;;;;;;3.77;2.27;;;9.10;73.80;;;12.34;46.53;96827.41;4992719;28;20069;-47
2023/01/08 05:43:34;;;;;;;3.10;2.03;;;9.20;74.30;;;12.31;47.06;96825.16;4993416;28;20498;-46
2023/01/08 05:46:02;;;;;;;3.80;2.67;;;9.20;74.80;;;12.31;47.16;96825.16;4993584;28;20054;-47
2023/01/08 05:48:33;;;;;;;2.13;1.60;;;9.20;75.40;;;12.32;47.57;96829.44;4993068;28;20071;-48
2023/01/08 05:51:02;;;;;;;2.83;1.80;;;9.20;76.00;;;12.34;47.57;96839.94;4985804;28;20060;-46
2023/01/08 05:53:31;;;;;;;2.23;1.63;;;9.20;76.20;;;12.28;47.94;96836.19;4993213;28;20050;-48
2023/01/08 05:56:09;;;;;;;1.97;1.40;;;9.20;76.90;;;12.31;47.97;96832.31;4992298;28;20051;-46
2023/01/08 05:58:37;;;;;;;2.57;1.70;;;9.30;76.90;;;12.32;47.66;96828.63;4992952;28;20054;-44
2023/01/08 06:01:12;;;;;;;2.53;1.30;;;9.30;76.80;;;12.31;48.09;96830.47;4993215;28;20495;-45
2023/01/08 06:03:39;;;;;;;2.10;1.60;;;9.30;77.10;;;12.31;48.05;96830.47;4992223;28;20057;-47
2023/01/08 06:06:09;;;;;;;3.67;1.60;;;9.30;77.20;;;12.25;48.21;96825.88;4992115;28;20050;-49
2023/01/08 06:08:37;;;;;;;1.40;1.20;;;9.30;77.40;;;12.25;48.66;96831.22;4992721;28;20047;-45
2023/01/08 06:11:07;;;;;;;3.03;1.50;;;9.30;77.80;;;12.27;48.88;96823.03;4993420;28;20049;-46
2023/01/08 06:13:36;;;;;;;2.40;1.30;;;9.30;77.80;;;12.30;48.34;96826.16;4991765;28;20047;-45
2023/01/08 06:16:04;;;;;;;1.70;1.17;;;9.30;77.90;;;12.30;48.76;96818.13;4992763;28;20057;-48
2023/01/08 06:18:32;;;;;;;1.90;1.30;;;9.30;78.10;;;12.33;48.90;96812.44;4992319;28;20038;-49
2023/01/08 06:21:01;;;;;;;1.60;1.20;;;9.30;78.30;;;12.34;48.70;96807.91;4984937;28;20414;-45
2023/01/08 06:23:29;;;;;;;2.57;1.30;;;9.30;78.60;;;12.35;48.77;96805.06;4991816;28;20524;-46
2023/01/08 06:26:00;;;;;;;1.00;0.90;;;9.30;78.70;;;12.36;48.97;96804.03;4992349;28;20533;-45
2023/01/08 06:28:27;;;;;;;2.30;1.40;;;9.40;78.60;;;12.43;48.75;96800.56;4991250;28;20053;-45
2023/01/08 06:31:01;;;;;;;1.53;0.93;;;9.40;78.60;;;12.44;48.98;96811.06;4992701;28;20453;-45
2023/01/08 06:33:31;;;;;;;1.43;1.10;;;9.40;78.70;;;12.36;49.07;96795.19;4991425;28;20514;-46
2023/01/08 06:36:01;;;;;;;1.27;1.17;;;9.40;78.80;;;12.38;48.89;96801.16;4992388;28;20042;-47
2023/01/08 06:38:34;;;;;;;1.80;1.20;;;9.40;79.10;;;12.41;49.03;96798.13;4992604;28;20038;-49
2023/01/08 06:41:07;;;;;;;1.07;0.97;;;9.40;79.00;;;12.42;49.03;96791.75;4983485;28;20053;-51
2023/01/08 06:43:37;;;;;;;0.80;0.80;;;9.40;79.30;;;12.45;48.71;96794.03;4992512;28;20289;-47
2023/01/08 06:46:07;;;;;;;0.90;0.90;;;9.40;79.10;;;12.44;48.79;96786.22;4992506;28;20046;-47
2023/01/08 06:48:36;;;;;;;1.70;1.20;;;9.40;79.10;;;12.43;48.69;96800.56;4991924;28;20073;-47
2023/01/08 06:51:04;;;;;;;1.23;1.13;;;9.40;79.10;;;12.42;49.18;96797.09;4983121;28;20050;-45
2023/01/08 06:53:32;;;;;;;1.20;1.07;;;9.40;79.00;;;12.44;49.21;96791.56;4992115;28;20054;-47
2023/01/08 06:56:03;;;;;;;1.03;0.83;;;9.50;79.00;;;12.52;48.72;96807.44;4991996;28;20039;-45
2023/01/08 06:58:30;;;;;;;1.87;1.40;;;9.50;78.90;;;12.51;49.01;96800.47;4992073;28;20053;-49
2023/01/08 07:00:58;;;;;;;2.77;1.23;;;9.50;78.80;;;12.56;48.67;96798.84;4990931;28;20042;-45
2023/01/08 07:03:25;;;;;;;1.53;1.00;;;9.50;78.70;;;12.60;48.71;96786.75;4991405;28;20110;-50
2023/01/08 07:05:55;;;;;;;2.70;1.20;;;9.60;78.50;;;12.53;48.84;96788.56;4992464;28;20050;-50
2023/01/08 07:08:22;;;;;;;2.13;1.20;;;9.60;78.60;;;12.53;49.08;96788.56;4974893;28;20049;-50
2023/01/08 07:10:50;;;;;;;2.27;1.00;;;9.50;78.60;;;12.57;49.04;96779.13;4991937;28;20046;-49
2023/01/08 07:13:18;;;;;;;1.30;0.93;;;9.50;78.70;;;12.59;48.99;96776.28;4992041;28;20107;-47
2023/01/08 07:15:45;;;;;;;1.63;1.00;;;9.50;78.60;;;12.63;48.93;96796.22;4991875;28;20043;-48
2023/01/08 07:18:13;;;;;;;1.53;1.20;;;9.60;78.50;;;12.63;48.67;96803.41;4991574;28;20038;-46
2023/01/08 07:20:40;;;;;;;2.83;1.50;;;9.60;78.30;;;12.54;48.91;96795.56;4991689;28;20046;-49
2023/01/08 07:23:10;;;;;;;3.73;1.80;;;9.60;78.30;;;12.58;49.13;96793.28;4991932;28;20043;-47
2023/01/08 07:25:38;;;;;;;1.50;1.10;;;9.50;78.60;;;12.60;48.69;96793.94;4990588;28;20043;-47
2023/01/08 07:28:09;;;;;;;0.93;0.90;;;9.60;78.90;;;12.59;49.13;96794.97;4991404;28;20046;-48
2023/01/08 07:30:37;;;;;;;1.80;1.50;;;9.50;78.90;;;12.63;49.21;96796.22;4990631;28;20057;-49
2023/01/08 07:33:05;;;;;;;1.00;0.90;;;9.60;79.30;;;12.69;48.98;96798.09;4991928;28;20042;-46
2023/01/08 07:35:34;;;;;;;0.90;0.90;;;9.70;79.50;;;12.67;49.29;96797.47;4991606;28;20443;-44
2023/01/08 07:38:01;;;;;;;2.10;1.17;;;9.60;79.50;;;12.70;48.92;96791.75;4991417;28;20034;-47
2023/01/08 07:40:30;;;;;;;1.40;1.10;;;9.60;79.40;;;12.72;49.11;96791.56;4991383;28;20038;-49
2023/01/08 07:43:00;;;;;;;1.00;0.90;;;9.60;79.40;;;12.71;48.94;96798.72;4991426;28;20069;-44
2023/01/08 07:45:29;;;;;;;2.03;1.07;;;9.60;79.60;;;12.67;49.12;96791.31;4974682;28;20057;-45
2023/01/08 07:47:57;;;;;;;1.50;1.00;;;9.50;79.80;;;12.66;49.30;96803.00;4990964;28;20042;-48
2023/01/08 07:50:26;;;;;;;1.13;1.00;;;9.60;79.80;;;12.65;49.37;96801.38;4989730;28;20058;-46
2023/01/08 07:52:58;;;;;;;1.37;1.00;;;9.50;79.80;;;12.68;49.44;96799.16;4988749;28;20062;-49
2023/01/08 07:55:28;;;;;;;1.17;1.00;;;9.60;80.10;;;12.63;49.58;96800.75;4991019;28;20049;-51
2023/01/08 07:57:56;;;;;;;1.90;1.20;;;9.50;80.60;;;12.63;49.61;96801.56;4991401;28;20053;-47
2023/01/08 08:00:24;;;;;;;0.70;0.70;;;9.50;80.80;;;12.64;49.49;96802.38;4991709;28;20039;-46
2023/01/08 08:02:52;;;;;;;1.50;0.97;;;9.50;81.00;;;12.65;49.77;96799.53;4991979;28;20042;-50
2023/01/08 08:05:19;;;;;;;1.77;1.30;;;9.50;81.10;;;12.67;49.76;96789.47;4994592;28;20081;-48
2023/01/08 08:07:47;;;;;;;1.80;1.20;;;9.50;81.30;;;12.68;49.90;96795.63;4995105;28;20050;-49
2023/01/08 08:10:14;;;;;;;1.53;1.27;;;9.50;81.70;;;12.69;50.05;96797.28;4994959;28;20053;-51
2023/01/08 08:12:44;;;;;;;2.07;1.53;;;9.60;82.00;;;12.67;49.86;96797.47;5010432;28;20041;-50
2023/01/08 08:15:12;;;;;;;1.10;1.00;;;9.60;82.30;;;12.66;49.98;96782.50;4995350;28;20050;-47
2023/01/08 08:17:44;;;;;;;1.53;1.10;;;9.50;82.60;;;12.56;50.30;96793.53;4994920;28;20390;-48
2023/01/08 08:20:12;;;;;;;1.77;1.10;;;9.40;83.20;;;12.58;50.15;96791.47;4994266;28;20045;-47
2023/01/08 08:22:39;;;;;;;1.97;1.23;;;9.40;83.60;;;12.57;50.37;96792.47;4995189;28;20046;-45
2023/01/08 08:25:07;;;;;;;1.97;1.10;;;9.40;83.80;;;12.59;50.44;96790.44;4995353;28;20038;-47
2023/01/08 08:27:35;;;;;;;0.80;0.80;;;9.40;84.70;;;12.61;50.55;96784.91;4994778;28;20455;-50
2023/01/08 08:30:04;;;;;;;0.90;0.80;;;9.50;83.70;;;12.54;50.44;96787.53;4977811;28;20046;-46
2023/01/08 08:32:32;;;;;;;1.30;0.90;;;9.40;83.80;;;12.58;50.69;96782.63;4995237;28;20046;-51
2023/01/08 08:35:00;;;;;;;0.77;0.70;;;9.40;84.30;;;12.58;50.56;96775.47;4994939;28;20042;-48
2023/01/08 08:37:27;;;;;;;1.50;0.90;;;9.40;84.30;;;12.61;50.49;96776.91;4993608;28;20065;-48
2023/01/08 08:39:55;;;;;;;1.83;1.00;;;9.50;84.40;;;12.64;50.70;96776.53;4994553;28;20046;-49
2023/01/08 08:42:22;;;;;;;1.10;1.00;;;9.50;84.50;;;12.64;50.44;96778.34;4994718;28;20053;-47
2023/01/08 08:44:50;;;;;;;1.23;1.10;;;9.50;84.10;;;12.61;50.61;96780.38;4994731;28;20053;-46
2023/01/08 08:47:17;;;;;;;0.80;0.80;;;9.50;84.30;;;12.65;50.63;96772.00;4994669;28;20050;-48
2023/01/08 08:49:45;;;;;;;2.20;1.40;;;9.50;84.10;;;12.67;50.60;96776.13;4994288;28;20042;-49
2023/01/08 08:52:12;;;;;;;1.27;0.70;;;9.60;84.00;;;12.66;50.49;96769.13;4994726;28;20038;-47
2023/01/08 08:54:40;;;;;;;1.20;1.10;;;9.50;84.30;;;12.67;50.84;96765.44;4993460;28;20042;-48
2023/01/08 08:57:09;;;;;;;1.20;1.00;;;9.50;84.30;;;12.69;50.62;96767.91;4993976;28;20034;-49
2023/01/08 08:59:36;;;;;;;0.87;0.77;;;9.60;84.20;;;12.66;50.87;96765.63;4994711;28;20422;-46
2023/01/08 09:02:04;;;;;;;0.80;0.80;;;9.50;84.60;;;12.68;50.84;96760.91;4994361;28;20038;-49
2023/01/08 09:04:33;;;;;;;1.30;0.90;;;9.50;84.80;;;12.68;50.83;96767.09;4994831;28;20050;-49
2023/01/08 09:07:00;;;;;;;0.73;0.73;;;9.50;84.70;;;12.68;50.43;96772.44;4993956;28;20058;-45
2023/01/08 09:09:28;;;;;;;1.53;1.00;;;9.50;84.70;;;12.69;50.59;96767.91;4994051;28;20058;-46
2023/01/08 09:11:56;;;;;;;2.07;1.30;;;9.50;84.70;;;12.68;50.99;96764.44;4992817;28;20073;-49
2023/01/08 09:14:24;;;;;;;2.63;1.20;;;9.50;85.00;;;12.67;50.70;96767.28;4993394;28;20045;-45
2023/01/08 09:16:51;;;;;;;1.47;1.27;;;9.50;85.10;;;12.67;51.03;96769.97;4993688;28;20046;-47
2023/01/08 09:19:19;;;;;;;1.70;1.00;;;9.50;85.40;;;12.67;51.09;96768.09;4994400;28;20379;-48
2023/01/08 09:21:46;;;;;;;1.43;1.00;;;9.50;85.40;;;12.65;50.87;96769.31;4994113;28;20034;-45
2023/01/08 09:24:14;;;;;;;1.53;1.10;;;9.50;85.30;;;12.60;51.17;96772.56;4993556;28;20034;-45
2023/01/08 09:26:41;;;;;;;1.30;1.00;;;9.50;85.70;;;12.59;51.34;96766.41;4994015;28;20065;-48
2023/01/08 09:29:09;;;;;;;1.43;1.00;;;9.50;86.00;;;12.61;51.13;96774.22;4993221;28;20042;-48
2023/01/08 09:31:36;;;;;;;1.10;0.90;;;9.50;85.90;;;12.61;51.04;96771.56;4993090;28;20046;-45
2023/01/08 09:34:04;;;;;;;0.87;0.83;;;9.50;85.80;;;12.63;51.25;96766.03;4992956;28;20410;-45
2023/01/08 09:36:32;;;;;;;1.67;1.10;;;9.50;86.00;;;12.68;51.11;96774.25;4994091;28;20062;-45
2023/01/08 09:39:00;;;;;;;1.13;1.00;;;9.60;85.90;;;12.72;51.02;96780.88;4993152;28;20050;-45
2023/01/08 09:41:36;;;;;;;1.77;1.10;;;9.60;85.50;;;12.72;51.45;96786.22;4994686;28;20050;-47
2023/01/08 09:44:05;;;;;;;1.20;1.10;;;9.60;85.40;;;12.72;50.89;96776.38;4993498;28;20042;-48
2023/01/08 09:46:35;;;;;;;2.50;1.20;;;9.60;85.30;;;12.72;51.16;96776.38;4993118;28;20042;-44
2023/01/08 09:49:11;;;;;;;1.60;1.27;;;9.60;85.40;;;12.76;51.24;96774.94;4994182;28;20050;-43
2023/01/08 09:51:39;;;;;;;1.43;0.90;;;9.60;85.30;;;12.79;50.64;96777.25;4993172;28;20042;-46
2023/01/08 09:54:15;;;;;;;2.17;1.40;;;9.60;85.30;;;12.83;50.90;96776.81;4993068;28;20045;-45
2023/01/08 09:56:43;;;;;;;1.27;0.83;;;9.70;85.20;;;12.82;50.90;96768.00;4993541;28;20054;-44
2023/01/08 09:59:16;;;;;;;1.43;1.00;;;9.70;85.10;;;12.80;51.19;96783.41;4993015;28;20034;-46
2023/01/08 10:01:44;;;;;;;0.93;0.90;;;9.70;85.50;;;12.80;50.99;96783.41;4992916;28;20046;-45
2023/01/08 10:04:21;;;;;;;1.50;1.00;;;9.60;85.30;;;12.80;51.02;96784.22;4986270;28;20046;-44
2023/01/08 10:06:56;;;;;;;1.40;1.10;;;9.60;85.60;;;12.79;51.29;96776.38;4993561;28;20050;-45
2023/01/08 10:09:31;;;;;;;1.27;1.07;;;9.60;85.60;;;12.82;51.22;96797.38;4992391;28;20046;-48
2023/01/08 10:12:03;;;;;;;1.67;1.17;;;9.60;85.80;;;12.85;51.18;96783.63;4999956;28;20050;-46
2023/01/08 10:14:37;;;;;;;1.23;1.13;;;9.70;86.20;;;12.89;51.10;96787.56;4994070;28;20486;-46
2023/01/08 10:17:11;;;;;;;;;;;9.70;86.00;;;12.97;51.15;96784.72;4992796;28;20038;-47
2023/01/08 10:19:39;;;;;;;1.13;0.80;;;9.70;86.20;;;13.05;50.77;96783.75;4994062;28;19921;-46
2023/01/08 10:22:18;;;;;;;2.00;0.90;;;9.80;86.20;;;13.05;50.74;96777.59;4992580;28;20050;-46
2023/01/08 10:24:46;;;;;;;2.00;1.33;;;9.80;85.90;;;13.06;50.79;96779.22;4992656;28;20069;-45
2023/01/08 10:27:22;;;;;;;1.90;1.40;;;9.80;85.80;;;13.06;51.20;96780.03;4984188;28;20106;-46
2023/01/08 10:29:50;;;;;;;1.87;1.30;;;9.80;85.90;;;13.07;50.93;96775.53;4992433;28;20038;-49
2023/01/08 10:32:27;;;;;;;1.73;1.40;;;9.80;86.00;;;13.10;50.97;96775.94;4992633;28;20045;-44
2023/01/08 10:34:56;;;;;;;1.93;1.53;;;9.80;85.80;;;13.09;50.88;96768.16;4991863;28;20475;-47
2023/01/08 10:37:41;;;;;;;3.30;1.57;;;9.90;85.90;;;13.09;51.09;96763.63;4991937;28;20042;-46
2023/01/08 10:40:29;;;;;;;2.00;1.30;;;9.90;86.10;;;13.12;51.00;96757.03;4992334;28;20050;-47